Time;durP1;ratioP1;P1;durP2;ratioP2;P2;SDS_P1;SDS_P2;PMS_P1;PMS_P2;Temp;Humidity;BMP_temperature;BMP_pressure;BME280_temperature;BME280_humidity;BME280_pressure;Samples;Min_cycle;Max_cycle;Signal;HPM_P1;HPM_P2
2021/09/30 00:00:38;;;;;;;1.23;0.90;;;20.40;49.70;;;;;;5078064;28;20195;-46
2021/09/30 00:03:03;;;;;;;1.77;0.93;;;20.40;49.70;;;;;;5077698;28;20191;-45
2021/09/30 00:05:29;;;;;;;1.60;1.00;;;20.40;49.70;;;;;;5076058;28;20538;-46
2021/09/30 00:07:55;;;;;;;1.07;0.70;;;20.40;49.70;;;;;;5082033;28;20195;-50
2021/09/30 00:10:23;;;;;;;1.47;0.80;;;20.40;49.70;;;;;;5076609;28;20187;-46
2021/09/30 00:12:58;;;;;;;4.53;1.60;;;20.40;49.60;;;;;;5081655;28;20316;-48
2021/09/30 00:15:40;;;;;;;1.70;0.90;;;20.50;49.50;;;;;;5082671;28;20444;-47
2021/09/30 00:32:36;;;;;;;1.03;0.93;;;20.70;48.40;;;;;;5074481;28;20456;-46
2021/09/30 00:35:00;;;;;;;2.60;1.07;;;20.50;48.10;;;;;;5073954;28;20515;-46
2021/09/30 00:45:29;;;;;;;2.50;1.00;;;20.40;47.50;;;;;;5074829;28;21102;-47
2021/09/30 00:48:14;;;;;;;1.90;0.80;;;20.30;48.20;;;;;;5077062;28;20191;-45
2021/09/30 02:58:33;;;;;;;1.10;0.90;;;19.80;48.30;;;;;;5080462;28;20490;-46
2021/09/30 03:01:06;;;;;;;2.63;1.10;;;19.90;48.00;;;;;;5074347;28;21062;-46
2021/09/30 03:03:37;;;;;;;2.40;1.27;;;19.80;47.90;;;;;;5080761;28;20433;-49
2021/09/30 03:06:05;;;;;;;2.23;1.30;;;19.90;47.60;;;;;;5080465;28;20533;-48
2021/09/30 03:08:35;;;;;;;4.00;1.20;;;19.90;47.50;;;;;;5078697;28;20437;-46
2021/09/30 03:11:02;;;;;;;3.00;1.00;;;19.90;47.80;;;;;;5089432;28;20501;-50
2021/09/30 03:13:30;;;;;;;2.17;0.93;;;19.80;48.10;;;;;;5078830;28;20449;-46
2021/09/30 03:16:14;;;;;;;1.13;0.80;;;19.80;48.30;;;;;;5084060;28;20528;-48
2021/09/30 03:23:37;;;;;;;2.07;0.90;;;19.70;48.10;;;;;;5084380;28;20453;-47
2021/09/30 03:26:03;;;;;;;3.03;1.93;;;19.70;48.20;;;;;;5078001;28;20485;-50
2021/09/30 03:28:31;;;;;;;3.13;1.00;;;19.70;48.20;;;;;;5082443;28;20476;-48
2021/09/30 03:30:59;;;;;;;1.73;1.00;;;19.80;48.30;;;;;;5081261;28;20450;-50
2021/09/30 03:33:26;;;;;;;0.93;0.93;;;19.80;47.60;;;;;;5077846;28;20452;-51
2021/09/30 03:35:52;;;;;;;0.93;0.90;;;19.90;48.10;;;;;;5086723;28;20437;-46
2021/09/30 03:38:20;;;;;;;2.13;1.20;;;19.80;47.80;;;;;;5079940;28;20456;-45
2021/09/30 03:40:46;;;;;;;0.80;0.80;;;19.80;48.10;;;;;;5082904;28;20433;-47
2021/09/30 03:43:11;;;;;;;1.10;0.97;;;19.80;47.90;;;;;;5087123;28;20463;-48
2021/09/30 03:45:37;;;;;;;1.30;1.00;;;19.80;47.90;;;;;;5083179;28;20227;-50
2021/09/30 03:48:03;;;;;;;0.97;0.87;;;19.90;47.80;;;;;;5081516;28;20195;-48
2021/09/30 03:50:38;;;;;;;1.33;0.90;;;19.80;47.80;;;;;;5086166;28;20191;-50
2021/09/30 03:53:10;;;;;;;1.90;1.00;;;19.80;47.70;;;;;;5091463;28;20471;-51
2021/09/30 04:01:04;;;;;;;2.03;1.30;;;20.20;44.30;;;;;;5082906;28;20467;-47
2021/09/30 04:03:30;;;;;;;3.37;1.20;;;20.30;44.20;;;;;;5084124;28;20437;-49
2021/09/30 04:05:55;;;;;;;1.90;1.60;;;20.20;43.80;;;;;;5076992;28;20218;-51
2021/09/30 04:08:21;;;;;;;1.30;1.20;;;20.10;43.80;;;;;;5076505;28;20646;-48
2021/09/30 04:10:46;;;;;;;3.20;1.57;;;20.00;43.90;;;;;;5082388;28;20293;-52
2021/09/30 04:13:12;;;;;;;8.90;5.73;;;19.90;43.80;;;;;;5080833;28;20549;-47
2021/09/30 04:15:38;;;;;;;16.50;9.20;;;19.70;44.60;;;;;;5073240;28;20211;-49
2021/09/30 04:18:03;;;;;;;9.33;5.00;;;19.60;44.50;;;;;;5081690;28;20195;-48
2021/09/30 04:20:29;;;;;;;8.30;3.90;;;19.40;44.20;;;;;;5080317;28;20673;-52
2021/09/30 04:22:55;;;;;;;4.80;3.10;;;19.30;44.60;;;;;;5079076;28;20194;-52
2021/09/30 04:25:21;;;;;;;4.67;2.20;;;19.20;44.80;;;;;;5074597;28;20329;-49
2021/09/30 04:27:46;;;;;;;2.97;1.30;;;19.10;44.90;;;;;;5080886;28;20192;-52
2021/09/30 04:30:12;;;;;;;3.13;1.43;;;18.90;44.70;;;;;;5082940;28;20206;-51
2021/09/30 04:32:38;;;;;;;1.50;1.40;;;18.70;44.80;;;;;;5081581;28;20677;-50
2021/09/30 04:35:05;;;;;;;2.00;1.20;;;18.60;45.50;;;;;;5086241;28;20199;-49
2021/09/30 04:37:30;;;;;;;1.87;1.40;;;18.40;46.80;;;;;;5081114;28;20455;-49
2021/09/30 04:39:56;;;;;;;1.53;1.43;;;18.40;47.40;;;;;;5082131;28;20448;-51
2021/09/30 04:42:22;;;;;;;1.37;1.27;;;18.40;47.00;;;;;;5083143;28;20188;-51
2021/09/30 04:44:47;;;;;;;2.00;1.50;;;18.40;47.10;;;;;;5073756;28;20603;-47
2021/09/30 04:47:13;;;;;;;3.50;1.40;;;18.30;46.10;;;;;;5076662;28;20643;-48
2021/09/30 04:49:38;;;;;;;1.37;1.27;;;18.30;46.30;;;;;;5086354;28;20199;-48
2021/09/30 04:52:05;;;;;;;4.50;1.80;;;18.10;45.80;;;;;;5079661;28;20198;-52
2021/09/30 04:54:30;;;;;;;2.20;1.23;;;18.00;46.00;;;;;;5076189;28;20208;-47
2021/09/30 04:56:56;;;;;;;2.23;1.27;;;17.80;47.10;;;;;;5073926;28;20437;-48
2021/09/30 04:59:22;;;;;;;1.77;1.20;;;17.70;47.40;;;;;;5075575;28;20192;-51
2021/09/30 05:01:47;;;;;;;3.47;1.43;;;17.70;48.20;;;;;;5079617;28;20206;-49
2021/09/30 05:04:13;;;;;;;1.63;1.00;;;17.70;48.90;;;;;;5071789;28;20225;-48
2021/09/30 05:06:38;;;;;;;1.10;1.00;;;17.70;48.80;;;;;;5075055;28;20191;-48
2021/09/30 05:09:04;;;;;;;3.23;1.40;;;17.80;49.00;;;;;;5074031;28;20190;-51
2021/09/30 05:11:40;;;;;;;1.63;1.20;;;17.90;49.40;;;;;;5076392;28;20699;-52
2021/09/30 05:14:06;;;;;;;3.67;1.57;;;18.00;48.70;;;;;;5075325;28;20532;-51
2021/09/30 05:16:31;;;;;;;5.23;1.77;;;18.00;47.20;;;;;;5076149;28;20567;-49
2021/09/30 05:18:57;;;;;;;2.57;1.47;;;18.00;48.30;;;;;;5082240;28;20598;-51
2021/09/30 05:21:24;;;;;;;2.40;1.73;;;17.90;50.80;;;;;;5078398;28;20661;-53
2021/09/30 05:23:51;;;;;;;3.10;1.50;;;18.00;49.00;;;;;;5073548;28;20233;-52
2021/09/30 05:26:17;;;;;;;2.40;1.63;;;18.10;48.00;;;;;;5075162;28;20469;-50
2021/09/30 05:28:43;;;;;;;2.60;1.63;;;18.20;47.20;;;;;;5073501;28;20529;-50
2021/09/30 05:31:09;;;;;;;3.50;1.77;;;18.30;46.80;;;;;;5073909;28;20434;-52
2021/09/30 05:33:35;;;;;;;1.73;1.63;;;18.30;46.50;;;;;;5082897;28;20553;-52
2021/09/30 05:36:02;;;;;;;3.50;1.43;;;18.30;46.10;;;;;;5087617;28;20295;-52
2021/09/30 05:38:28;;;;;;;6.60;2.00;;;18.30;46.30;;;;;;5081744;28;20183;-52
2021/09/30 05:40:54;;;;;;;5.93;1.80;;;18.30;46.00;;;;;;5088017;28;20507;-53
2021/09/30 05:43:32;;;;;;;4.13;1.50;;;18.40;45.80;;;;;;5082161;28;20195;-54
2021/09/30 05:45:59;;;;;;;2.53;1.53;;;18.40;45.60;;;;;;5082703;28;20845;-53
2021/09/30 05:48:25;;;;;;;1.50;1.40;;;18.40;45.50;;;;;;5086530;28;20433;-53
2021/09/30 05:50:51;;;;;;;2.23;1.50;;;18.40;45.40;;;;;;5089076;28;20441;-54
2021/09/30 05:53:18;;;;;;;6.80;1.93;;;18.40;45.40;;;;;;5086733;28;20905;-52
2021/09/30 05:55:44;;;;;;;1.90;1.77;;;18.40;45.50;;;;;;5076015;28;20521;-51
2021/09/30 05:58:10;;;;;;;4.20;1.43;;;18.40;45.50;;;;;;5081841;28;20444;-49
2021/09/30 06:11:20;;;;;;;2.97;1.70;;;18.30;45.80;;;;;;5085468;28;20438;-49
2021/09/30 06:14:06;;;;;;;2.67;1.70;;;18.30;45.70;;;;;;5085959;28;20442;-48
2021/09/30 06:16:35;;;;;;;2.90;1.40;;;18.40;45.80;;;;;;5079811;28;20460;-49
2021/09/30 06:19:02;;;;;;;2.10;1.80;;;18.40;45.90;;;;;;5084379;28;20441;-48
2021/09/30 06:21:28;;;;;;;2.43;2.23;;;18.40;45.80;;;;;;5088669;28;20422;-50
2021/09/30 06:23:53;;;;;;;2.10;1.70;;;18.50;45.80;;;;;;5082854;28;20434;-48
2021/09/30 06:26:19;;;;;;;2.03;1.83;;;18.60;45.70;;;;;;5077083;28;20491;-48
2021/09/30 06:28:44;;;;;;;2.50;1.70;;;18.60;45.70;;;;;;5083702;28;20238;-48
2021/09/30 06:31:10;;;;;;;2.30;1.90;;;18.70;45.70;;;;;;5084809;28;20333;-52
2021/09/30 06:33:37;;;;;;;1.70;1.10;;;18.80;45.70;;;;;;5088628;28;20190;-50
2021/09/30 06:36:03;;;;;;;4.80;2.00;;;18.90;45.70;;;;;;5085520;28;20249;-50
2021/09/30 06:38:30;;;;;;;2.43;2.00;;;19.00;45.60;;;;;;5084276;28;20449;-49
2021/09/30 06:40:56;;;;;;;1.60;1.50;;;19.10;45.50;;;;;;5086940;28;20219;-48
2021/09/30 06:43:21;;;;;;;1.33;1.20;;;19.20;45.50;;;;;;5088719;28;20472;-54
2021/09/30 06:45:50;;;;;;;1.70;1.60;;;19.30;45.40;;;;;;5086519;28;20235;-48
2021/09/30 06:48:15;;;;;;;2.77;1.60;;;19.50;45.20;;;;;;5077371;28;20273;-48
2021/09/30 06:50:41;;;;;;;5.83;1.80;;;19.60;45.20;;;;;;5086232;28;20524;-48
2021/09/30 06:53:07;;;;;;;1.73;1.30;;;19.70;45.10;;;;;;5088278;28;20499;-55
2021/09/30 06:55:33;;;;;;;1.83;1.40;;;19.80;45.10;;;;;;5082762;28;20180;-48
2021/09/30 06:57:59;;;;;;;1.90;1.47;;;19.90;44.90;;;;;;5088731;28;20437;-48
2021/09/30 07:00:24;;;;;;;2.03;1.57;;;20.10;44.90;;;;;;5084974;28;20210;-48
2021/09/30 07:02:51;;;;;;;4.73;1.70;;;20.30;44.80;;;;;;5081267;28;20187;-52
2021/09/30 07:05:18;;;;;;;1.80;1.33;;;20.40;44.60;;;;;;5083181;28;20647;-50
2021/09/30 07:07:43;;;;;;;4.37;1.80;;;20.50;44.70;;;;;;5075459;28;20857;-48
2021/09/30 07:10:09;;;;;;;2.03;1.63;;;20.60;44.40;;;;;;5079377;28;20461;-49
2021/09/30 07:12:36;;;;;;;1.70;1.57;;;20.70;44.20;;;;;;5082230;28;20201;-52
2021/09/30 07:15:02;;;;;;;2.87;1.80;;;20.80;43.90;;;;;;5087560;28;20441;-50
2021/09/30 07:17:28;;;;;;;2.30;1.73;;;20.90;43.80;;;;;;5086944;28;20435;-50
2021/09/30 07:19:54;;;;;;;3.80;1.70;;;20.80;43.90;;;;;;5078943;28;20543;-48
2021/09/30 07:22:20;;;;;;;1.40;1.30;;;20.90;43.90;;;;;;5087205;28;20218;-50
2021/09/30 07:24:46;;;;;;;3.53;1.70;;;21.00;43.70;;;;;;5087954;28;20960;-49
2021/09/30 07:27:11;;;;;;;4.70;1.70;;;21.00;43.50;;;;;;5088235;28;20275;-49
2021/09/30 07:29:38;;;;;;;2.97;1.33;;;21.10;43.20;;;;;;5075823;28;20322;-48
2021/09/30 07:32:04;;;;;;;4.17;1.60;;;21.20;42.80;;;;;;5084159;28;20731;-50
2021/09/30 07:34:30;;;;;;;2.57;1.53;;;21.30;42.60;;;;;;5080278;28;20524;-51
2021/09/30 07:36:56;;;;;;;3.77;1.80;;;21.40;42.30;;;;;;5063733;28;20512;-50
2021/09/30 07:39:22;;;;;;;3.70;1.20;;;21.50;42.10;;;;;;5080221;28;20199;-50
2021/09/30 07:41:48;;;;;;;3.67;1.40;;;21.50;42.00;;;;;;5074577;28;20806;-51
2021/09/30 07:44:16;;;;;;;4.50;1.57;;;21.50;42.00;;;;;;5084092;28;20480;-49
2021/09/30 07:46:43;;;;;;;3.50;1.20;;;21.50;42.10;;;;;;5078009;28;20476;-48
2021/09/30 07:49:09;;;;;;;2.30;1.60;;;21.50;41.70;;;;;;5083993;28;20448;-47
2021/09/30 07:51:36;;;;;;;4.07;2.20;;;21.00;41.80;;;;;;5091733;28;20852;-48
2021/09/30 07:54:02;;;;;;;3.30;1.80;;;20.90;42.60;;;;;;5082871;28;20567;-48
2021/09/30 07:56:28;;;;;;;3.40;1.50;;;21.10;42.90;;;;;;5085908;28;20476;-50
2021/09/30 07:58:55;;;;;;;2.43;1.43;;;21.20;43.00;;;;;;5088874;28;20944;-48
2021/09/30 08:01:22;;;;;;;2.97;1.73;;;21.30;42.60;;;;;;5084923;28;20195;-48
2021/09/30 08:03:49;;;;;;;3.87;1.37;;;21.30;42.50;;;;;;5090845;28;20947;-48
2021/09/30 08:06:15;;;;;;;1.93;1.40;;;21.30;42.40;;;;;;5092603;28;20483;-49
2021/09/30 08:08:40;;;;;;;2.13;1.50;;;21.10;42.90;;;;;;5091755;28;20448;-47
2021/09/30 08:11:06;;;;;;;1.90;1.60;;;20.90;42.20;;;;;;5093093;28;20426;-48
2021/09/30 08:13:32;;;;;;;3.90;1.60;;;20.90;43.10;;;;;;5085144;28;20552;-48
2021/09/30 08:15:59;;;;;;;2.70;1.40;;;20.80;43.10;;;;;;5087127;28;20625;-48
2021/09/30 08:18:25;;;;;;;3.80;1.87;;;20.70;43.20;;;;;;5077901;28;20449;-47
2021/09/30 08:20:51;;;;;;;4.03;1.73;;;20.80;43.40;;;;;;5083421;28;20564;-50
2021/09/30 08:23:17;;;;;;;6.87;1.70;;;20.90;43.30;;;;;;5087689;28;20425;-47
2021/09/30 08:25:43;;;;;;;3.20;1.30;;;20.70;43.50;;;;;;5076665;28;20481;-49
2021/09/30 08:28:10;;;;;;;2.50;1.60;;;20.80;43.50;;;;;;5085106;28;20258;-49
2021/09/30 08:30:36;;;;;;;4.90;2.07;;;20.80;42.90;;;;;;5091466;28;20434;-47
2021/09/30 08:33:03;;;;;;;2.30;1.23;;;20.70;42.30;;;;;;5083955;28;20438;-48
2021/09/30 08:35:28;;;;;;;2.30;1.23;;;20.60;43.10;;;;;;5091280;28;20596;-48
2021/09/30 08:37:54;;;;;;;1.57;1.30;;;20.60;43.20;;;;;;5086504;28;20430;-46
2021/09/30 08:40:20;;;;;;;3.50;1.33;;;20.60;43.60;;;;;;5087511;28;20192;-47
2021/09/30 08:42:48;;;;;;;1.40;1.20;;;20.70;43.20;;;;;;5082511;28;20349;-47
2021/09/30 08:45:15;;;;;;;4.43;1.43;;;20.70;43.20;;;;;;5080366;28;20481;-48
2021/09/30 08:47:45;;;;;;;5.00;1.40;;;20.60;43.00;;;;;;5084207;28;20772;-47
2021/09/30 08:50:11;;;;;;;4.20;1.20;;;20.70;42.70;;;;;;5084477;28;20459;-47
2021/09/30 08:52:40;;;;;;;5.20;2.07;;;20.60;42.00;;;;;;5079530;28;20446;-46
2021/09/30 08:55:07;;;;;;;6.13;1.70;;;20.70;42.10;;;;;;5088523;28;20677;-48
2021/09/30 08:57:32;;;;;;;2.43;1.77;;;20.70;41.90;;;;;;5091903;28;20597;-48
2021/09/30 09:00:08;;;;;;;1.33;1.20;;;20.90;42.60;;;;;;5081251;28;20541;-47
2021/09/30 09:02:53;;;;;;;1.97;1.10;;;21.00;41.20;;;;;;5086833;28;20270;-48
2021/09/30 09:05:20;;;;;;;2.57;1.40;;;21.20;40.60;;;;;;5088286;28;20485;-47
2021/09/30 09:07:57;;;;;;;2.13;1.20;;;21.10;40.70;;;;;;5083552;28;20437;-48
2021/09/30 09:10:24;;;;;;;2.43;1.57;;;21.00;40.40;;;;;;5087801;28;20811;-47
2021/09/30 09:13:11;;;;;;;2.10;1.40;;;20.80;39.70;;;;;;5084706;28;20429;-48
2021/09/30 09:15:37;;;;;;;3.50;1.17;;;20.70;40.20;;;;;;5076078;28;20476;-48
2021/09/30 09:18:13;;;;;;;4.53;1.57;;;20.80;40.20;;;;;;5081709;28;20449;-49
2021/09/30 09:20:39;;;;;;;1.77;1.00;;;21.00;40.10;;;;;;5079862;28;20724;-47
2021/09/30 09:23:04;;;;;;;4.10;1.20;;;21.00;39.90;;;;;;5070503;28;20430;-48
2021/09/30 09:25:30;;;;;;;3.57;1.27;;;21.10;39.70;;;;;;5084201;28;20241;-53
2021/09/30 09:27:58;;;;;;;1.37;1.03;;;21.00;39.00;;;;;;5083171;28;20267;-48
2021/09/30 09:30:32;;;;;;;4.43;1.37;;;20.90;38.80;;;;;;5085269;28;20519;-48
2021/09/30 09:33:07;;;;;;;2.30;0.80;;;20.90;38.70;;;;;;5084447;28;20933;-47
2021/09/30 09:36:11;;;;;;;3.10;1.57;;;20.80;39.10;;;;;;5090368;28;20954;-49
2021/09/30 09:38:43;;;;;;;1.57;0.93;;;20.70;39.00;;;;;;5077917;28;20456;-47
2021/09/30 09:41:12;;;;;;;4.83;1.17;;;20.60;39.70;;;;;;5079544;28;20457;-47
2021/09/30 09:43:44;;;;;;;1.37;1.00;;;20.70;39.20;;;;;;5077424;28;20561;-48
2021/09/30 09:46:11;;;;;;;5.20;1.27;;;20.90;38.80;;;;;;5079250;28;20489;-47
2021/09/30 09:48:38;;;;;;;4.43;1.10;;;21.00;38.50;;;;;;5074269;28;20476;-50
2021/09/30 09:51:11;;;;;;;2.53;1.23;;;20.90;38.20;;;;;;5074202;28;20521;-47
2021/09/30 09:53:38;;;;;;;2.30;1.20;;;20.90;38.00;;;;;;5080383;28;20532;-47
2021/09/30 09:56:16;;;;;;;1.90;1.03;;;20.90;38.40;;;;;;5082520;28;20434;-48
2021/09/30 09:58:53;;;;;;;3.23;1.20;;;20.90;38.60;;;;;;5078770;28;20796;-47
2021/09/30 10:01:22;;;;;;;1.33;0.90;;;20.90;37.90;;;;;;5080678;28;20446;-47
2021/09/30 10:04:09;;;;;;;3.50;1.00;;;20.90;37.70;;;;;;5078217;28;20918;-48
2021/09/30 10:06:35;;;;;;;3.53;1.30;;;21.20;37.70;;;;;;5081587;28;20445;-48
2021/09/30 10:09:04;;;;;;;3.13;1.20;;;21.40;37.50;;;;;;5087710;28;20494;-49
2021/09/30 10:11:29;;;;;;;2.17;1.10;;;21.50;37.20;;;;;;5076955;28;20466;-47
2021/09/30 10:13:58;;;;;;;2.13;1.00;;;21.40;35.60;;;;;;5076538;28;21175;-47
2021/09/30 10:16:25;;;;;;;1.80;1.00;;;21.40;36.20;;;;;;5082332;28;20195;-48
2021/09/30 10:18:56;;;;;;;3.13;1.07;;;21.50;34.80;;;;;;5071242;28;20453;-47
2021/09/30 10:21:22;;;;;;;4.97;1.50;;;21.70;34.70;;;;;;5084185;28;20521;-47
2021/09/30 10:23:57;;;;;;;2.40;1.33;;;21.50;34.00;;;;;;5084594;28;20426;-47
2021/09/30 10:26:32;;;;;;;2.80;1.20;;;21.60;34.70;;;;;;5088750;28;20536;-47
2021/09/30 10:28:59;;;;;;;2.03;0.80;;;21.80;35.40;;;;;;5077426;28;20472;-47
2021/09/30 10:31:34;;;;;;;2.03;1.10;;;22.10;34.30;;;;;;5077259;28;20435;-49
2021/09/30 10:34:05;;;;;;;1.83;0.90;;;21.90;32.90;;;;;;5081731;28;20511;-48
2021/09/30 10:36:31;;;;;;;1.53;0.87;;;22.10;33.20;;;;;;5080943;28;20449;-47
2021/09/30 10:39:22;;;;;;;3.17;0.83;;;22.20;33.10;;;;;;5088280;28;20825;-50
2021/09/30 10:41:51;;;;;;;2.73;1.00;;;22.60;32.80;;;;;;5085408;28;20294;-51
2021/09/30 10:44:23;;;;;;;5.60;1.07;;;22.70;31.90;;;;;;5082400;28;20480;-54
2021/09/30 10:46:52;;;;;;;3.17;1.00;;;22.80;31.20;;;;;;5075912;28;20437;-52
2021/09/30 10:49:32;;;;;;;2.47;1.20;;;22.90;32.70;;;;;;5081038;28;20449;-47
2021/09/30 10:52:17;;;;;;;2.93;0.70;;;23.20;33.20;;;;;;5087853;28;20424;-49
2021/09/30 10:54:49;;;;;;;2.47;1.07;;;23.20;32.10;;;;;;5088071;28;20517;-49
2021/09/30 10:57:33;;;;;;;1.80;1.07;;;23.30;31.90;;;;;;5080458;28;20437;-48
2021/09/30 10:59:59;;;;;;;3.63;1.00;;;23.50;32.00;;;;;;5078449;28;20473;-50
2021/09/30 11:02:26;;;;;;;4.87;1.00;;;23.40;30.60;;;;;;5089312;28;21094;-54
2021/09/30 11:05:06;;;;;;;3.20;1.10;;;23.50;30.00;;;;;;5086805;28;20491;-49
2021/09/30 11:07:32;;;;;;;5.63;1.00;;;23.60;30.10;;;;;;5080145;28;20866;-50
2021/09/30 11:10:25;;;;;;;1.57;0.80;;;23.60;30.30;;;;;;5070828;28;20438;-48
2021/09/30 11:13:19;;;;;;;4.27;0.90;;;23.60;30.50;;;;;;5081938;28;20195;-53
2021/09/30 11:16:07;;;;;;;1.53;0.90;;;23.50;30.90;;;;;;5090071;28;20958;-48
2021/09/30 11:18:56;;;;;;;1.90;1.00;;;23.70;31.50;;;;;;5084683;28;21130;-51
2021/09/30 11:21:38;;;;;;;2.80;1.00;;;23.80;30.90;;;;;;5086892;28;20448;-45
2021/09/30 11:24:09;;;;;;;1.80;0.90;;;23.80;29.60;;;;;;5090030;28;20524;-48
2021/09/30 11:26:52;;;;;;;2.40;1.00;;;23.90;28.90;;;;;;5087532;28;20793;-48
2021/09/30 11:29:21;;;;;;;1.20;0.97;;;23.90;29.40;;;;;;5088445;28;20987;-47
2021/09/30 11:31:47;;;;;;;1.87;1.53;;;23.90;28.80;;;;;;5087920;28;20437;-46
2021/09/30 11:34:46;;;;;;;1.03;0.80;;;24.10;29.90;;;;;;5085622;28;20429;-46
2021/09/30 11:37:21;;;;;;;2.87;1.07;;;24.20;29.70;;;;;;5050294;28;20442;-49
2021/09/30 11:39:51;;;;;;;2.87;0.80;;;24.30;29.80;;;;;;5078498;28;20430;-46
2021/09/30 11:42:18;;;;;;;1.83;1.20;;;24.20;30.00;;;;;;5080361;28;20479;-46
2021/09/30 11:44:58;;;;;;;3.03;1.20;;;24.30;29.60;;;;;;5087547;28;20577;-46
2021/09/30 11:47:24;;;;;;;1.90;1.03;;;24.40;29.20;;;;;;5086770;28;20492;-48
2021/09/30 11:49:50;;;;;;;1.03;0.77;;;24.50;29.60;;;;;;5087188;28;20935;-50
2021/09/30 11:52:16;;;;;;;1.50;0.80;;;24.60;29.30;;;;;;5088168;28;20553;-47
2021/09/30 11:54:42;;;;;;;3.97;1.60;;;24.60;30.10;;;;;;5083933;28;20218;-47
2021/09/30 11:57:20;;;;;;;2.17;0.93;;;24.60;30.30;;;;;;5086401;28;20211;-50
2021/09/30 11:59:46;;;;;;;1.50;0.90;;;24.60;30.10;;;;;;5085662;28;20447;-50
2021/09/30 12:02:12;;;;;;;4.17;1.10;;;24.50;29.70;;;;;;5091437;28;20920;-45
2021/09/30 12:04:51;;;;;;;1.77;1.00;;;24.60;30.00;;;;;;5083208;28;20231;-45
2021/09/30 12:07:27;;;;;;;2.83;1.07;;;24.60;30.70;;;;;;5082218;28;20452;-47
2021/09/30 12:09:58;;;;;;;2.20;0.90;;;24.70;30.20;;;;;;5090647;28;20437;-45
2021/09/30 12:12:35;;;;;;;6.73;1.00;;;24.70;29.90;;;;;;5092021;28;20433;-46
2021/09/30 12:15:05;;;;;;;0.80;0.80;;;24.80;29.20;;;;;;5089548;28;20452;-47
2021/09/30 12:17:35;;;;;;;6.30;1.00;;;24.80;29.50;;;;;;5085215;28;20441;-45
2021/09/30 12:20:03;;;;;;;1.13;0.90;;;24.90;28.40;;;;;;5090006;28;20925;-45
2021/09/30 12:22:40;;;;;;;1.13;0.80;;;24.90;28.90;;;;;;5080040;28;20434;-45
2021/09/30 12:25:19;;;;;;;5.83;1.00;;;25.00;29.20;;;;;;5089213;28;20839;-45
2021/09/30 12:27:51;;;;;;;4.03;1.00;;;24.90;29.10;;;;;;5084763;28;20441;-45
2021/09/30 12:30:18;;;;;;;4.70;1.13;;;24.90;29.30;;;;;;5085060;28;20440;-45
2021/09/30 12:32:46;;;;;;;3.80;0.87;;;24.90;29.00;;;;;;5085574;28;20518;-46
2021/09/30 12:35:26;;;;;;;1.63;1.30;;;24.90;29.00;;;;;;5083903;28;20462;-50
2021/09/30 12:37:58;;;;;;;7.33;1.57;;;24.80;29.10;;;;;;5080447;28;20532;-45
2021/09/30 12:40:26;;;;;;;3.03;0.80;;;24.30;29.20;;;;;;5075419;28;20442;-49
2021/09/30 12:43:16;;;;;;;0.90;0.80;;;24.10;29.90;;;;;;5082395;28;20453;-47
2021/09/30 12:45:56;;;;;;;2.60;1.17;;;24.50;29.20;;;;;;5068669;28;20489;-47
2021/09/30 12:48:23;;;;;;;1.17;0.80;;;24.40;28.50;;;;;;5084175;28;20446;-47
2021/09/30 12:50:52;;;;;;;1.10;0.80;;;24.50;28.20;;;;;;5073008;28;20484;-47
2021/09/30 12:53:20;;;;;;;2.93;1.17;;;24.50;28.60;;;;;;5085404;28;20433;-47
2021/09/30 12:55:48;;;;;;;1.10;0.87;;;24.60;29.30;;;;;;5083862;28;20457;-49
2021/09/30 12:58:33;;;;;;;1.57;0.80;;;24.60;28.60;;;;;;5090718;28;20429;-44
2021/09/30 13:01:19;;;;;;;5.50;1.00;;;24.50;28.30;;;;;;5082615;28;20849;-47
2021/09/30 13:04:26;;;;;;;1.40;1.00;;;24.40;28.90;;;;;;5085805;28;20928;-47
2021/09/30 13:06:55;;;;;;;1.13;0.80;;;24.50;28.40;;;;;;5081803;28;20517;-45
2021/09/30 13:09:25;;;;;;;1.67;0.80;;;24.60;28.00;;;;;;5085951;28;20496;-47
2021/09/30 13:11:56;;;;;;;1.80;0.70;;;24.80;28.00;;;;;;5081288;28;20445;-48
2021/09/30 13:14:31;;;;;;;2.00;0.70;;;25.10;28.00;;;;;;5082433;28;20836;-47
2021/09/30 13:17:10;;;;;;;1.70;0.80;;;25.30;27.60;;;;;;5086081;28;20437;-48
2021/09/30 13:19:41;;;;;;;2.83;0.90;;;25.40;27.30;;;;;;5079191;28;20438;-51
2021/09/30 13:22:07;;;;;;;3.10;0.93;;;25.20;27.40;;;;;;5084102;28;20444;-50
2021/09/30 13:24:35;;;;;;;2.00;1.27;;;25.10;27.20;;;;;;5090027;28;20480;-45
2021/09/30 13:27:01;;;;;;;1.43;0.80;;;25.20;27.30;;;;;;5080251;28;20426;-51
2021/09/30 13:29:27;;;;;;;7.50;1.10;;;25.40;27.50;;;;;;5081005;28;20477;-46
2021/09/30 13:31:53;;;;;;;3.13;0.73;;;25.40;27.10;;;;;;5073718;28;20434;-53
2021/09/30 13:34:19;;;;;;;1.00;0.87;;;25.30;26.80;;;;;;5078679;28;20216;-47
2021/09/30 13:36:45;;;;;;;1.47;0.90;;;25.20;27.20;;;;;;5076457;28;20565;-47
2021/09/30 13:39:10;;;;;;;1.53;0.80;;;25.20;27.10;;;;;;5086815;28;20437;-50
2021/09/30 13:41:36;;;;;;;1.33;0.80;;;25.40;27.10;;;;;;5077985;28;21007;-50
2021/09/30 13:44:02;;;;;;;1.03;0.93;;;25.40;26.80;;;;;;5086324;28;20191;-50
2021/09/30 13:46:28;;;;;;;2.33;1.00;;;25.20;26.70;;;;;;5077760;28;20305;-49
2021/09/30 13:48:54;;;;;;;2.07;0.80;;;25.30;26.70;;;;;;5083461;28;20518;-46
2021/09/30 13:51:19;;;;;;;1.23;0.70;;;25.30;25.90;;;;;;5073656;28;20438;-51
2021/09/30 13:53:45;;;;;;;3.63;0.93;;;25.40;26.00;;;;;;5088194;28;20187;-51
2021/09/30 13:56:10;;;;;;;1.73;0.80;;;25.60;26.50;;;;;;5084713;28;20214;-51
2021/09/30 13:58:36;;;;;;;2.03;0.90;;;25.80;26.50;;;;;;5083888;28;20249;-45
2021/09/30 14:01:02;;;;;;;1.07;0.80;;;25.80;26.20;;;;;;5080520;28;20192;-46
2021/09/30 14:03:28;;;;;;;2.70;1.00;;;25.90;26.30;;;;;;5077928;28;20195;-49
2021/09/30 14:05:54;;;;;;;3.27;1.03;;;25.90;26.20;;;;;;5076410;28;20500;-49
2021/09/30 14:08:20;;;;;;;3.00;0.73;;;25.90;26.10;;;;;;5077174;28;20187;-48
2021/09/30 14:10:47;;;;;;;1.67;0.60;;;25.90;26.20;;;;;;5077732;28;20222;-51
2021/09/30 14:13:16;;;;;;;1.00;0.60;;;25.90;26.10;;;;;;5086965;28;20827;-46
2021/09/30 14:15:43;;;;;;;0.87;0.80;;;25.90;27.20;;;;;;5089395;28;20532;-46
2021/09/30 14:18:09;;;;;;;1.13;0.73;;;26.10;26.90;;;;;;5071483;28;20530;-49
2021/09/30 14:20:35;;;;;;;2.00;0.70;;;26.10;26.40;;;;;;5071086;28;20414;-48
2021/09/30 14:23:01;;;;;;;1.67;1.10;;;26.10;26.90;;;;;;5073468;28;20426;-50
2021/09/30 14:25:27;;;;;;;3.13;0.90;;;26.10;27.30;;;;;;5084106;28;20526;-49
2021/09/30 14:27:53;;;;;;;2.13;0.70;;;26.20;26.50;;;;;;5089666;28;20937;-51
2021/09/30 14:30:18;;;;;;;1.83;0.60;;;26.10;26.30;;;;;;5073389;28;20228;-51
2021/09/30 14:32:44;;;;;;;1.23;0.70;;;26.10;26.60;;;;;;5085484;28;20254;-50
2021/09/30 14:35:10;;;;;;;1.57;0.70;;;26.00;26.30;;;;;;5077004;28;20573;-48
2021/09/30 14:37:36;;;;;;;1.13;0.73;;;25.80;25.90;;;;;;5079037;28;20202;-49
2021/09/30 14:40:03;;;;;;;3.90;1.07;;;25.80;26.70;;;;;;5081566;28;21143;-53
2021/09/30 14:42:29;;;;;;;3.50;1.00;;;25.70;26.30;;;;;;5080735;28;20430;-48
2021/09/30 14:44:57;;;;;;;3.00;0.90;;;25.90;26.50;;;;;;5079172;28;21333;-48
2021/09/30 14:47:23;;;;;;;2.50;0.80;;;25.80;26.50;;;;;;5086218;28;20677;-48
2021/09/30 14:49:49;;;;;;;2.87;0.80;;;25.60;26.30;;;;;;5080556;28;20442;-49
2021/09/30 14:52:17;;;;;;;2.30;0.90;;;25.50;26.50;;;;;;5075658;28;20234;-52
2021/09/30 14:54:42;;;;;;;2.10;0.80;;;25.60;26.50;;;;;;5086329;28;20441;-48
2021/09/30 14:57:08;;;;;;;1.50;1.00;;;25.70;26.40;;;;;;5076198;28;20436;-49
2021/09/30 14:59:35;;;;;;;1.00;0.80;;;25.50;27.10;;;;;;5083546;28;20670;-49
2021/09/30 15:02:01;;;;;;;1.90;0.90;;;25.60;26.80;;;;;;5077346;28;20242;-53
2021/09/30 15:04:27;;;;;;;5.07;1.10;;;25.20;26.30;;;;;;5089831;28;20477;-49
2021/09/30 15:06:53;;;;;;;1.30;1.20;;;25.20;27.30;;;;;;5088643;28;20476;-49
2021/09/30 15:09:20;;;;;;;3.70;0.90;;;25.10;27.80;;;;;;5089816;28;20658;-52
2021/09/30 15:11:46;;;;;;;2.67;1.30;;;25.30;27.50;;;;;;5088638;28;20191;-47
2021/09/30 15:14:11;;;;;;;2.20;1.00;;;25.60;27.20;;;;;;5082982;28;20795;-47
2021/09/30 15:16:51;;;;;;;1.43;0.90;;;25.60;27.10;;;;;;5091401;28;20191;-46
2021/09/30 15:19:19;;;;;;;3.53;1.10;;;25.50;26.80;;;;;;5089493;28;20195;-46
2021/09/30 15:21:45;;;;;;;0.97;0.80;;;25.60;26.80;;;;;;5085904;28;20437;-47
2021/09/30 15:24:11;;;;;;;1.63;0.90;;;25.60;27.00;;;;;;5085689;28;21008;-46
2021/09/30 15:26:39;;;;;;;3.77;1.00;;;25.60;26.40;;;;;;5091772;28;20574;-47
2021/09/30 15:29:04;;;;;;;3.30;1.00;;;25.50;26.80;;;;;;5081579;28;20522;-49
2021/09/30 15:31:31;;;;;;;4.10;1.00;;;25.70;26.50;;;;;;5091879;28;20441;-46
2021/09/30 15:33:58;;;;;;;2.40;0.93;;;25.80;26.60;;;;;;5083150;28;20195;-46
2021/09/30 15:36:25;;;;;;;1.70;0.90;;;25.90;26.50;;;;;;5088577;28;20438;-45
2021/09/30 15:38:51;;;;;;;2.00;1.00;;;25.90;26.80;;;;;;5088981;28;20465;-46
2021/09/30 15:41:16;;;;;;;0.90;0.77;;;25.90;26.70;;;;;;5088490;28;20422;-48
2021/09/30 15:43:42;;;;;;;2.17;1.13;;;25.50;26.60;;;;;;5091409;28;20567;-45
2021/09/30 15:46:08;;;;;;;1.03;0.73;;;24.90;26.60;;;;;;5092101;28;20597;-45
2021/09/30 15:48:34;;;;;;;3.90;0.90;;;24.80;27.60;;;;;;5079524;28;20188;-48